createdAt,value
2023-01-31T00:00:05.907Z,1.42
2023-01-31T00:01:05.871Z,1.42
2023-01-31T00:02:05.990Z,1.42
2023-01-31T00:03:05.921Z,1.41
2023-01-31T00:04:05.856Z,1.42
2023-01-31T00:05:05.836Z,1.44
2023-01-31T00:06:05.818Z,1.44
2023-01-31T00:07:05.874Z,1.42
2023-01-31T00:08:05.791Z,1.44
2023-01-31T00:09:05.796Z,1.39
2023-01-31T00:10:05.779Z,1.39
2023-01-31T00:11:05.825Z,1.35
2023-01-31T00:12:14.482Z,1.35
2023-01-31T00:13:05.736Z,1.30
2023-01-31T00:14:05.717Z,1.31
2023-01-31T00:15:05.714Z,1.28
2023-01-31T00:16:05.738Z,1.30
2023-01-31T00:17:05.731Z,1.27
2023-01-31T00:18:05.695Z,1.21
2023-01-31T00:19:05.659Z,1.20
2023-01-31T00:20:05.653Z,1.21
2023-01-31T00:21:05.631Z,1.13
2023-01-31T00:22:05.614Z,1.13
2023-01-31T00:23:05.627Z,1.16
2023-01-31T00:24:05.639Z,1.12
2023-01-31T00:25:05.572Z,1.16
2023-01-31T00:26:05.577Z,1.16
2023-01-31T00:27:05.577Z,1.12
2023-01-31T00:28:05.561Z,1.17
2023-01-31T00:29:05.542Z,1.16
2023-01-31T00:30:05.520Z,1.18
2023-01-31T00:31:05.570Z,1.20
2023-01-31T00:32:05.557Z,1.18
2023-01-31T00:33:05.547Z,1.18
2023-01-31T00:34:05.461Z,1.16
2023-01-31T00:35:05.439Z,1.17
2023-01-31T00:36:05.452Z,1.09
2023-01-31T00:37:05.415Z,1.08
2023-01-31T00:38:05.423Z,1.06
2023-01-31T00:39:05.421Z,1.08
2023-01-31T00:40:05.384Z,1.08
2023-01-31T00:41:05.369Z,1.06
2023-01-31T00:42:05.371Z,1.02
2023-01-31T00:43:05.363Z,1.00
2023-01-31T00:44:05.331Z,0.99
2023-01-31T00:45:05.325Z,0.96
2023-01-31T00:46:05.308Z,0.92
2023-01-31T00:47:05.336Z,0.92
2023-01-31T00:48:05.325Z,0.94
2023-01-31T00:49:05.272Z,0.90
2023-01-31T00:50:05.244Z,0.91
2023-01-31T00:51:05.247Z,0.90
2023-01-31T00:52:05.250Z,0.91
2023-01-31T00:53:05.255Z,0.92
2023-01-31T00:54:05.216Z,0.87
2023-01-31T00:55:05.207Z,0.87
2023-01-31T00:56:05.177Z,0.85
2023-01-31T00:57:05.203Z,0.85
2023-01-31T00:58:05.182Z,0.84
2023-01-31T00:59:05.147Z,0.82
2023-01-31T01:00:05.122Z,0.84
2023-01-31T01:01:05.170Z,0.80
2023-01-31T01:02:05.137Z,0.81
2023-01-31T01:03:05.139Z,0.78
2023-01-31T01:04:05.069Z,0.78
2023-01-31T01:05:05.103Z,0.70
2023-01-31T01:06:05.045Z,0.67
2023-01-31T01:07:05.033Z,0.70
2023-01-31T01:08:05.024Z,0.72
2023-01-31T01:09:05.031Z,0.74
2023-01-31T01:10:04.993Z,0.72
2023-01-31T01:11:05.029Z,0.72
2023-01-31T01:12:04.968Z,0.70
2023-01-31T01:13:04.959Z,0.74
2023-01-31T01:14:05.292Z,0.76
2023-01-31T01:15:04.931Z,0.73
2023-01-31T01:16:05.018Z,0.72
2023-01-31T01:17:04.901Z,0.76
2023-01-31T01:18:04.912Z,0.74
2023-01-31T01:19:04.905Z,0.76
2023-01-31T01:20:04.865Z,0.74
2023-01-31T01:21:04.868Z,0.74
2023-01-31T01:22:04.860Z,0.74
2023-01-31T01:23:04.810Z,0.78
2023-01-31T01:24:04.844Z,0.76
2023-01-31T01:25:04.815Z,0.78
2023-01-31T01:26:04.787Z,0.76
2023-01-31T01:27:04.768Z,0.72
2023-01-31T01:28:04.757Z,0.74
2023-01-31T01:29:04.782Z,0.70
2023-01-31T01:30:04.725Z,0.69
2023-01-31T01:31:04.748Z,0.66
2023-01-31T01:32:04.802Z,0.66
2023-01-31T01:33:04.699Z,0.66
2023-01-31T01:34:04.702Z,0.69
2023-01-31T01:35:04.675Z,0.70
2023-01-31T01:36:04.663Z,0.70
2023-01-31T01:37:04.642Z,0.69
2023-01-31T01:38:04.627Z,0.70
2023-01-31T01:39:04.664Z,0.69
2023-01-31T01:40:04.619Z,0.69
2023-01-31T01:41:04.589Z,0.72
2023-01-31T01:42:04.581Z,0.73
2023-01-31T01:43:04.576Z,0.72
2023-01-31T01:44:04.567Z,0.73
2023-01-31T01:45:04.549Z,0.74
2023-01-31T01:46:04.546Z,0.73
2023-01-31T01:47:04.528Z,0.73
2023-01-31T01:48:04.575Z,0.73
2023-01-31T01:49:04.533Z,0.78
2023-01-31T01:50:04.482Z,0.76
2023-01-31T01:51:04.462Z,0.81
2023-01-31T01:52:04.468Z,0.76
2023-01-31T01:53:04.449Z,0.78
2023-01-31T01:54:04.461Z,0.81
2023-01-31T01:55:04.416Z,0.81
2023-01-31T01:56:04.398Z,0.84
2023-01-31T01:57:04.415Z,0.84
2023-01-31T01:58:04.437Z,0.88
2023-01-31T01:59:04.407Z,0.87
2023-01-31T02:00:04.423Z,0.91
2023-01-31T02:01:04.426Z,0.92
2023-01-31T02:02:04.370Z,0.92
2023-01-31T02:03:04.315Z,0.92
2023-01-31T02:04:04.319Z,0.92
2023-01-31T02:05:04.292Z,0.94
2023-01-31T02:06:04.274Z,0.96
2023-01-31T02:07:04.286Z,0.99
2023-01-31T02:08:04.242Z,1.03
2023-01-31T02:09:04.264Z,0.98
2023-01-31T02:10:04.219Z,0.94
2023-01-31T02:11:04.213Z,0.96
2023-01-31T02:12:04.203Z,0.90
2023-01-31T02:13:04.173Z,0.91
2023-01-31T02:14:04.164Z,0.94
2023-01-31T02:15:04.186Z,0.91
2023-01-31T02:16:04.136Z,0.92
2023-01-31T02:17:04.172Z,0.94
2023-01-31T02:18:04.131Z,0.92
2023-01-31T02:19:04.146Z,0.92
2023-01-31T02:20:04.100Z,0.94
2023-01-31T02:21:04.085Z,1.00
2023-01-31T02:22:04.066Z,1.00
2023-01-31T02:23:04.085Z,1.00
2023-01-31T02:24:04.049Z,1.05
2023-01-31T02:25:04.093Z,1.08
2023-01-31T02:26:04.050Z,1.10
2023-01-31T02:27:04.024Z,1.08
2023-01-31T02:28:03.981Z,1.02
2023-01-31T02:29:03.994Z,1.02
2023-01-31T02:30:04.047Z,1.06
2023-01-31T02:31:03.982Z,0.99
2023-01-31T02:32:03.944Z,1.02
2023-01-31T02:33:03.944Z,0.94
2023-01-31T02:34:03.909Z,0.92
2023-01-31T02:35:03.903Z,0.88
2023-01-31T02:36:03.885Z,0.92
2023-01-31T02:37:03.903Z,0.91
2023-01-31T02:38:03.842Z,0.88
2023-01-31T02:39:03.868Z,0.92
2023-01-31T02:40:03.854Z,0.96
2023-01-31T02:41:03.846Z,0.90
2023-01-31T02:42:03.814Z,0.90
2023-01-31T02:43:03.787Z,0.87
2023-01-31T02:44:03.799Z,0.90
2023-01-31T02:45:03.871Z,0.88
2023-01-31T02:46:03.834Z,0.87
2023-01-31T02:47:03.787Z,0.85
2023-01-31T02:48:03.755Z,0.81
2023-01-31T02:49:03.708Z,0.80
2023-01-31T02:50:03.754Z,0.73
2023-01-31T02:51:03.751Z,0.72
2023-01-31T02:52:03.664Z,0.69
2023-01-31T02:53:03.681Z,0.72
2023-01-31T02:54:03.646Z,0.72
2023-01-31T02:55:03.759Z,0.62
2023-01-31T02:56:03.977Z,0.63
2023-01-31T02:57:03.609Z,0.53
2023-01-31T02:58:03.629Z,0.62
2023-01-31T02:59:03.623Z,0.64
2023-01-31T03:00:03.582Z,0.62
2023-01-31T03:01:03.686Z,0.60
2023-01-31T03:02:03.620Z,0.62
2023-01-31T03:03:03.656Z,0.63
2023-01-31T03:04:03.522Z,0.56
2023-01-31T03:05:03.530Z,0.63
2023-01-31T03:06:03.536Z,0.51
2023-01-31T03:07:03.516Z,0.48
2023-01-31T03:08:03.466Z,0.55
2023-01-31T03:09:03.540Z,0.56
2023-01-31T03:10:03.431Z,0.56
2023-01-31T03:11:03.515Z,0.62
2023-01-31T03:12:03.450Z,0.59
2023-01-31T03:13:03.415Z,0.56
2023-01-31T03:14:03.384Z,0.66
2023-01-31T03:15:03.448Z,0.69
2023-01-31T03:16:03.384Z,0.70
2023-01-31T03:17:03.453Z,0.62
2023-01-31T03:18:03.343Z,0.64
2023-01-31T03:19:03.324Z,0.64
2023-01-31T03:20:03.364Z,0.63
2023-01-31T03:21:03.350Z,0.62
2023-01-31T03:22:03.288Z,0.63
2023-01-31T03:23:03.280Z,0.53
2023-01-31T03:24:03.268Z,0.50
2023-01-31T03:25:03.249Z,0.43
2023-01-31T03:26:03.276Z,0.47
2023-01-31T03:27:03.225Z,0.48
2023-01-31T03:28:03.242Z,0.41
2023-01-31T03:29:03.254Z,0.50
2023-01-31T03:30:03.194Z,0.47
2023-01-31T03:31:03.274Z,0.48
2023-01-31T03:32:03.264Z,0.44
2023-01-31T03:33:03.152Z,0.47
2023-01-31T03:34:03.128Z,0.48
2023-01-31T03:35:03.148Z,0.53
2023-01-31T03:36:03.109Z,0.43
2023-01-31T03:37:03.119Z,0.43
2023-01-31T03:38:03.090Z,0.50
2023-01-31T03:39:03.099Z,0.48
2023-01-31T03:40:03.077Z,0.53
2023-01-31T03:41:03.056Z,0.53
2023-01-31T03:42:03.062Z,0.48
2023-01-31T03:43:03.060Z,0.50
2023-01-31T03:44:03.027Z,0.55
2023-01-31T03:45:02.995Z,0.55
2023-01-31T03:46:02.992Z,0.55
2023-01-31T03:47:02.963Z,0.51
2023-01-31T03:48:02.948Z,0.55
2023-01-31T03:49:02.956Z,0.55
2023-01-31T03:50:02.934Z,0.48
2023-01-31T03:51:02.924Z,0.47
2023-01-31T03:52:02.916Z,0.50
2023-01-31T03:53:02.917Z,0.47
2023-01-31T03:54:02.868Z,0.45
2023-01-31T03:55:02.848Z,0.41
2023-01-31T03:56:02.852Z,0.30
2023-01-31T03:57:02.848Z,0.29
2023-01-31T03:58:02.821Z,0.30
2023-01-31T03:59:02.847Z,0.27
2023-01-31T04:00:02.822Z,0.23
2023-01-31T04:01:02.781Z,0.27
2023-01-31T04:02:02.843Z,0.36
2023-01-31T04:03:02.774Z,0.30
2023-01-31T04:04:02.741Z,0.26
2023-01-31T04:05:02.788Z,0.25
2023-01-31T04:06:02.739Z,0.32
2023-01-31T04:07:02.728Z,0.36
2023-01-31T04:08:02.729Z,0.37
2023-01-31T04:09:02.678Z,0.26
2023-01-31T04:10:02.672Z,0.27
2023-01-31T04:11:02.680Z,0.32
2023-01-31T04:12:02.663Z,0.22
2023-01-31T04:13:02.630Z,0.30
2023-01-31T04:14:02.630Z,0.25
2023-01-31T04:15:02.613Z,0.29
2023-01-31T04:16:02.652Z,0.29
2023-01-31T04:17:02.630Z,0.32
2023-01-31T04:18:02.552Z,0.33
2023-01-31T04:19:02.577Z,0.36
2023-01-31T04:20:02.531Z,0.36
2023-01-31T04:21:02.526Z,0.33
2023-01-31T04:22:02.539Z,0.33
2023-01-31T04:23:02.525Z,0.35
2023-01-31T04:24:02.490Z,0.35
2023-01-31T04:25:02.500Z,0.37
2023-01-31T04:26:02.466Z,0.36
2023-01-31T04:27:02.455Z,0.36
2023-01-31T04:28:02.457Z,0.33
2023-01-31T04:29:02.432Z,0.35
2023-01-31T04:30:02.421Z,0.36
2023-01-31T04:31:02.523Z,0.33
2023-01-31T04:32:02.732Z,0.35
2023-01-31T04:33:02.364Z,0.35
2023-01-31T04:34:02.350Z,0.37
2023-01-31T04:35:02.684Z,0.36
2023-01-31T04:36:02.344Z,0.37
2023-01-31T04:37:02.332Z,0.33
2023-01-31T04:38:02.313Z,0.37
2023-01-31T04:39:02.332Z,0.36
2023-01-31T04:40:02.262Z,0.36
2023-01-31T04:41:02.259Z,0.40
2023-01-31T04:42:02.274Z,0.37
2023-01-31T04:43:02.252Z,0.40
2023-01-31T04:44:02.227Z,0.37
2023-01-31T04:45:02.258Z,0.40
2023-01-31T04:46:02.190Z,0.35
2023-01-31T04:47:02.188Z,0.33
2023-01-31T04:48:02.224Z,0.35
2023-01-31T04:49:02.164Z,0.40
2023-01-31T04:50:02.153Z,0.37
2023-01-31T04:51:02.156Z,0.43
2023-01-31T04:52:02.108Z,0.44
2023-01-31T04:53:02.124Z,0.48
2023-01-31T04:54:02.090Z,0.48
2023-01-31T04:55:02.118Z,0.50
2023-01-31T04:56:02.065Z,0.41
2023-01-31T04:57:02.063Z,0.47
2023-01-31T04:58:02.058Z,0.45
2023-01-31T04:59:02.081Z,0.35
2023-01-31T05:00:02.055Z,0.36
2023-01-31T05:01:02.104Z,0.32
2023-01-31T05:02:02.002Z,0.30
2023-01-31T05:03:02.063Z,0.35
2023-01-31T05:04:01.985Z,0.32
2023-01-31T05:05:01.991Z,0.32
2023-01-31T05:06:01.993Z,0.35
2023-01-31T05:07:01.965Z,0.36
2023-01-31T05:08:01.959Z,0.36
2023-01-31T05:09:01.916Z,0.36
2023-01-31T05:10:01.958Z,0.33
2023-01-31T05:11:04.172Z,0.29
2023-01-31T05:12:01.859Z,0.30
2023-01-31T05:13:01.884Z,0.30
2023-01-31T05:14:01.905Z,0.29
2023-01-31T05:15:01.828Z,0.26
2023-01-31T05:16:01.842Z,0.25
2023-01-31T05:17:01.796Z,0.25
2023-01-31T05:18:01.832Z,0.27
2023-01-31T05:19:01.782Z,0.22
2023-01-31T05:20:01.761Z,0.25
2023-01-31T05:21:01.761Z,0.20
2023-01-31T05:22:01.750Z,0.23
2023-01-31T05:23:01.767Z,0.22
2023-01-31T05:24:01.711Z,0.22
2023-01-31T05:25:01.741Z,0.14
2023-01-31T05:26:01.713Z,0.15
2023-01-31T05:27:01.701Z,0.11
2023-01-31T05:28:01.670Z,0.12
2023-01-31T05:29:01.671Z,0.09
2023-01-31T05:30:01.691Z,0.07
2023-01-31T05:31:01.669Z,0.08
2023-01-31T05:32:01.816Z,0.04
2023-01-31T05:33:01.641Z,0.07
2023-01-31T05:34:01.589Z,0.11
2023-01-31T05:35:01.589Z,0.09
2023-01-31T05:36:01.577Z,0.12
2023-01-31T05:37:01.633Z,0.17
2023-01-31T05:38:02.182Z,0.14
2023-01-31T05:39:02.004Z,0.20
2023-01-31T05:40:02.070Z,0.17
2023-01-31T05:41:01.895Z,0.14
2023-01-31T05:42:01.995Z,0.17
2023-01-31T05:43:02.054Z,0.09
2023-01-31T05:44:01.591Z,0.07
2023-01-31T05:45:01.669Z,0.04
2023-01-31T05:46:01.527Z,0.02
2023-01-31T05:47:01.591Z,0.05
2023-01-31T05:48:01.386Z,0.00
2023-01-31T05:49:01.395Z,0.04
2023-01-31T05:50:01.433Z,0.04
2023-01-31T05:51:01.361Z,0.08
2023-01-31T05:52:01.888Z,0.05
2023-01-31T05:53:01.824Z,0.07
2023-01-31T05:54:01.648Z,0.11
2023-01-31T05:55:01.706Z,0.11
2023-01-31T05:56:01.589Z,0.11
2023-01-31T05:57:01.501Z,0.11
2023-01-31T05:58:01.563Z,0.05
2023-01-31T05:59:01.267Z,0.04
2023-01-31T06:00:01.317Z,0.08
2023-01-31T06:01:01.221Z,0.08
2023-01-31T06:02:01.304Z,0.07
2023-01-31T06:03:01.328Z,0.11
2023-01-31T06:04:01.939Z,0.05
2023-01-31T06:05:01.762Z,0.08
2023-01-31T06:06:01.670Z,0.04
2023-01-31T06:07:01.510Z,0.00
2023-01-31T06:08:01.155Z,0.00
2023-01-31T06:09:01.230Z,0.02
2023-01-31T06:10:01.127Z,0.07
2023-01-31T06:11:01.101Z,0.11
2023-01-31T06:12:01.101Z,0.08
2023-01-31T06:13:01.086Z,0.08
2023-01-31T06:14:01.124Z,0.07
2023-01-31T06:15:01.092Z,0.07
2023-01-31T06:16:01.037Z,0.07
2023-01-31T06:17:01.063Z,0.05
2023-01-31T06:18:01.017Z,0.08
2023-01-31T06:19:01.309Z,0.11
2023-01-31T06:20:00.997Z,0.09
2023-01-31T06:21:00.977Z,0.11
2023-01-31T06:22:00.982Z,0.11
2023-01-31T06:23:00.968Z,0.08
2023-01-31T06:24:01.006Z,0.12
2023-01-31T06:25:00.926Z,0.14
2023-01-31T06:26:00.905Z,0.18
2023-01-31T06:27:00.893Z,0.15
2023-01-31T06:28:00.885Z,0.17
2023-01-31T06:29:00.894Z,0.17
2023-01-31T06:30:00.874Z,0.17
2023-01-31T06:31:00.933Z,0.17
2023-01-31T06:32:00.832Z,0.20
2023-01-31T06:33:00.774Z,0.25
2023-01-31T06:34:00.789Z,0.25
2023-01-31T06:35:00.738Z,0.25
2023-01-31T06:36:00.787Z,0.25
2023-01-31T06:37:00.763Z,0.30
2023-01-31T06:38:00.703Z,0.27
2023-01-31T06:39:00.724Z,0.25
2023-01-31T06:40:00.969Z,0.26
2023-01-31T06:41:00.676Z,0.33
2023-01-31T06:42:00.807Z,0.30
2023-01-31T06:43:00.645Z,0.32
2023-01-31T06:44:00.632Z,0.36
2023-01-31T06:45:00.690Z,0.37
2023-01-31T06:46:00.666Z,0.37
2023-01-31T06:47:00.609Z,0.43
2023-01-31T06:48:00.585Z,0.43
2023-01-31T06:49:00.571Z,0.36
2023-01-31T06:50:00.600Z,0.41
2023-01-31T06:51:00.524Z,0.47
2023-01-31T06:52:00.539Z,0.50
2023-01-31T06:53:00.527Z,0.51
2023-01-31T06:54:00.495Z,0.55
2023-01-31T06:55:00.504Z,0.55
2023-01-31T06:56:00.467Z,0.60
2023-01-31T06:57:00.443Z,0.53
2023-01-31T06:58:00.454Z,0.59
2023-01-31T06:59:00.441Z,0.60
2023-01-31T07:00:00.427Z,0.60
2023-01-31T07:01:00.416Z,0.62
2023-01-31T07:02:00.406Z,0.66
2023-01-31T07:03:00.372Z,0.64
2023-01-31T07:04:00.363Z,0.66
2023-01-31T07:05:00.432Z,0.69
2023-01-31T07:06:00.344Z,0.67
2023-01-31T07:07:00.308Z,0.78
2023-01-31T07:08:00.311Z,0.80
2023-01-31T07:09:00.285Z,0.84
2023-01-31T07:10:00.307Z,0.81
2023-01-31T07:11:00.282Z,0.81
2023-01-31T07:12:00.261Z,0.85
2023-01-31T07:13:00.244Z,0.85
2023-01-31T07:14:00.239Z,0.91
2023-01-31T07:15:00.341Z,0.92
2023-01-31T07:16:00.374Z,0.88
2023-01-31T07:17:00.195Z,0.90
2023-01-31T07:18:00.186Z,0.92
2023-01-31T07:19:00.173Z,0.87
2023-01-31T07:20:00.178Z,0.90
2023-01-31T07:21:00.169Z,0.84
2023-01-31T07:22:00.142Z,0.82
2023-01-31T07:23:00.126Z,0.91
2023-01-31T07:24:00.110Z,0.88
2023-01-31T07:25:00.117Z,0.91
2023-01-31T07:26:00.116Z,0.92
2023-01-31T07:27:00.057Z,0.88
2023-01-31T07:28:00.095Z,0.91
2023-01-31T07:29:00.103Z,0.92
2023-01-31T07:30:00.029Z,0.91
2023-01-31T07:31:00.071Z,0.96
2023-01-31T07:32:00.094Z,0.94
2023-01-31T07:32:59.973Z,0.91
2023-01-31T07:34:00.022Z,0.92
2023-01-31T07:34:59.971Z,0.94
2023-01-31T07:35:59.961Z,0.94
2023-01-31T07:36:59.956Z,0.94
2023-01-31T07:37:59.953Z,0.96
2023-01-31T07:38:59.924Z,0.99
2023-01-31T07:39:59.921Z,0.96
2023-01-31T07:40:59.935Z,0.92
2023-01-31T07:41:59.883Z,1.00
2023-01-31T07:42:59.886Z,0.99
2023-01-31T07:43:59.848Z,0.92
2023-01-31T07:45:06.961Z,0.99
2023-01-31T07:45:59.893Z,0.99
2023-01-31T07:46:59.812Z,1.00
2023-01-31T07:47:59.829Z,0.99
2023-01-31T07:48:59.774Z,0.98
2023-01-31T07:49:59.784Z,0.99
2023-01-31T07:50:59.833Z,0.98
2023-01-31T07:51:59.775Z,1.02
2023-01-31T07:52:59.821Z,0.98
2023-01-31T07:53:59.731Z,1.00
2023-01-31T07:54:59.725Z,1.05
2023-01-31T07:55:59.716Z,1.05
2023-01-31T07:56:59.710Z,1.03
2023-01-31T07:57:59.668Z,1.05
2023-01-31T07:58:59.792Z,1.00
2023-01-31T07:59:59.663Z,0.99
2023-01-31T08:00:59.638Z,1.00
2023-01-31T08:01:59.682Z,1.02
2023-01-31T08:02:59.592Z,1.02
2023-01-31T08:04:10.777Z,1.02
2023-01-31T08:04:59.651Z,1.05
2023-01-31T08:05:59.664Z,1.09
2023-01-31T08:06:59.552Z,1.06
2023-01-31T08:07:59.548Z,1.09
2023-01-31T08:08:59.582Z,1.05
2023-01-31T08:09:59.509Z,1.02
2023-01-31T08:10:59.511Z,1.05
2023-01-31T08:11:59.518Z,1.00
2023-01-31T08:12:59.500Z,1.03
2023-01-31T08:13:59.442Z,1.03
2023-01-31T08:14:59.441Z,1.06
2023-01-31T08:15:59.453Z,1.00
2023-01-31T08:16:59.478Z,1.02
2023-01-31T08:17:59.403Z,1.08
2023-01-31T08:18:59.398Z,1.05
2023-01-31T08:19:59.394Z,1.06
2023-01-31T08:20:59.352Z,1.02
2023-01-31T08:21:59.387Z,1.03
2023-01-31T08:22:59.343Z,1.00
2023-01-31T08:23:59.319Z,1.03
2023-01-31T08:24:59.301Z,1.08
2023-01-31T08:25:59.330Z,1.08
2023-01-31T08:26:59.415Z,1.12
2023-01-31T08:27:59.279Z,1.16
2023-01-31T08:28:59.304Z,1.17
2023-01-31T08:29:59.255Z,1.12
2023-01-31T08:31:08.235Z,1.18
2023-01-31T08:31:59.294Z,1.20
2023-01-31T08:32:59.288Z,1.17
2023-01-31T08:33:59.196Z,1.16
2023-01-31T08:34:59.191Z,1.21
2023-01-31T08:35:59.233Z,1.20
2023-01-31T08:36:59.195Z,1.20
2023-01-31T08:38:15.439Z,1.26
2023-01-31T08:38:59.233Z,1.24
2023-01-31T08:39:59.173Z,1.34
2023-01-31T08:40:59.093Z,1.28
2023-01-31T08:41:59.145Z,1.30
2023-01-31T08:42:59.106Z,1.30
2023-01-31T08:43:59.333Z,1.34
2023-01-31T08:44:59.052Z,1.31
2023-01-31T08:45:59.036Z,1.39
2023-01-31T08:46:59.149Z,1.38
2023-01-31T08:47:59.030Z,1.38
2023-01-31T08:48:59.009Z,1.36
2023-01-31T08:49:59.057Z,1.38
2023-01-31T08:50:58.997Z,1.41
2023-01-31T08:51:58.957Z,1.41
2023-01-31T08:52:58.944Z,1.42
2023-01-31T08:53:58.962Z,1.42
2023-01-31T08:54:58.934Z,1.44
2023-01-31T08:55:58.972Z,1.49
2023-01-31T08:56:58.914Z,1.52
2023-01-31T08:58:00.416Z,1.48
2023-01-31T08:58:58.858Z,1.53
2023-01-31T08:59:58.848Z,1.49
2023-01-31T09:00:58.868Z,1.46
2023-01-31T09:01:58.965Z,1.46
2023-01-31T09:02:58.907Z,1.49
2023-01-31T09:03:58.806Z,1.52
2023-01-31T09:04:58.806Z,1.55
2023-01-31T09:05:58.815Z,1.55
2023-01-31T09:06:58.766Z,1.63
2023-01-31T09:07:58.753Z,1.60
2023-01-31T09:08:58.878Z,1.60
2023-01-31T09:09:58.730Z,1.64
2023-01-31T09:10:58.701Z,1.62
2023-01-31T09:11:58.855Z,1.59
2023-01-31T09:12:58.679Z,1.67
2023-01-31T09:13:58.676Z,1.62
2023-01-31T09:14:58.702Z,1.64
2023-01-31T09:15:58.641Z,1.64
2023-01-31T09:16:58.755Z,1.69
2023-01-31T09:17:58.617Z,1.74
2023-01-31T09:18:58.629Z,1.73
2023-01-31T09:19:58.596Z,1.74
2023-01-31T09:20:58.626Z,1.78
2023-01-31T09:21:58.609Z,1.78
2023-01-31T09:22:58.569Z,1.75
2023-01-31T09:23:58.551Z,1.78
2023-01-31T09:24:58.538Z,1.80
2023-01-31T09:25:58.544Z,1.91
2023-01-31T09:26:58.640Z,1.89
2023-01-31T09:27:58.521Z,1.92
2023-01-31T09:28:58.501Z,1.97
2023-01-31T09:29:58.472Z,2.01
2023-01-31T09:30:58.560Z,2.04
2023-01-31T09:31:58.482Z,2.01
2023-01-31T09:32:58.444Z,2.04
2023-01-31T09:33:58.449Z,2.07
2023-01-31T09:34:58.425Z,2.04
2023-01-31T09:35:58.493Z,2.06
2023-01-31T09:36:58.375Z,2.10
2023-01-31T09:37:58.394Z,2.10
2023-01-31T09:38:58.397Z,2.12
2023-01-31T09:39:58.382Z,2.15
2023-01-31T09:40:58.356Z,2.14
2023-01-31T09:41:58.322Z,2.12
2023-01-31T09:42:58.288Z,2.11
2023-01-31T09:43:58.293Z,2.15
2023-01-31T09:44:58.281Z,2.19
2023-01-31T09:45:58.254Z,2.21
2023-01-31T09:46:58.344Z,2.32
2023-01-31T09:47:58.257Z,2.33
2023-01-31T09:48:58.225Z,2.37
2023-01-31T09:49:58.232Z,2.40
2023-01-31T09:50:58.191Z,2.43
2023-01-31T09:51:58.227Z,2.47
2023-01-31T09:52:58.214Z,2.50
2023-01-31T09:53:58.183Z,2.48
2023-01-31T09:54:58.176Z,2.40
2023-01-31T09:55:58.157Z,2.37
2023-01-31T09:56:58.157Z,2.37
2023-01-31T09:57:58.116Z,2.42
2023-01-31T09:58:58.104Z,2.33
2023-01-31T09:59:58.076Z,2.36
2023-01-31T10:00:58.140Z,2.42
2023-01-31T10:01:59.197Z,2.42
2023-01-31T10:02:58.066Z,2.40
2023-01-31T10:03:58.085Z,2.35
2023-01-31T10:04:58.006Z,2.40
2023-01-31T10:05:58.046Z,2.40
2023-01-31T10:06:58.039Z,2.39
2023-01-31T10:07:58.006Z,2.36
2023-01-31T10:08:57.996Z,2.37
2023-01-31T10:09:58.010Z,2.42
2023-01-31T10:10:57.947Z,2.42
2023-01-31T10:11:57.914Z,2.47
2023-01-31T10:12:57.939Z,2.47
2023-01-31T10:13:57.969Z,2.37
2023-01-31T10:14:57.906Z,2.47
2023-01-31T10:15:57.877Z,2.47
2023-01-31T10:16:57.916Z,2.55
2023-01-31T10:17:57.872Z,2.63
2023-01-31T10:18:57.915Z,2.71
2023-01-31T10:19:57.817Z,2.69
2023-01-31T10:20:57.800Z,2.73
2023-01-31T10:21:57.875Z,2.76
2023-01-31T10:22:57.775Z,2.75
2023-01-31T10:23:57.757Z,2.72
2023-01-31T10:24:57.768Z,2.73
2023-01-31T10:25:57.733Z,2.75
2023-01-31T10:26:57.829Z,2.69
2023-01-31T10:27:57.757Z,2.69
2023-01-31T10:28:57.727Z,2.71
2023-01-31T10:29:57.679Z,2.68
2023-01-31T10:30:57.779Z,2.63
2023-01-31T10:31:57.776Z,2.68
2023-01-31T10:32:57.675Z,2.72
2023-01-31T10:33:57.649Z,2.73
2023-01-31T10:34:57.635Z,2.81
2023-01-31T10:35:57.664Z,2.72
2023-01-31T10:36:57.629Z,2.72
2023-01-31T10:37:57.584Z,2.81
2023-01-31T10:38:57.677Z,2.81
2023-01-31T10:39:57.563Z,2.75
2023-01-31T10:40:57.550Z,2.73
2023-01-31T10:41:57.537Z,2.71
2023-01-31T10:42:57.526Z,2.66
2023-01-31T10:43:57.538Z,2.72
2023-01-31T10:44:57.511Z,2.78
2023-01-31T10:45:57.547Z,2.79
2023-01-31T10:46:57.476Z,2.82
2023-01-31T10:47:57.999Z,2.79
2023-01-31T10:48:57.515Z,2.81
2023-01-31T10:49:57.438Z,2.86
2023-01-31T10:50:57.425Z,2.81
2023-01-31T10:51:57.409Z,2.76
2023-01-31T10:52:57.558Z,2.78
2023-01-31T10:53:57.454Z,2.76
2023-01-31T10:54:57.383Z,2.78
2023-01-31T10:55:57.836Z,2.82
2023-01-31T10:56:57.984Z,2.86
2023-01-31T10:57:57.491Z,2.76
2023-01-31T10:58:57.724Z,2.78
2023-01-31T10:59:57.346Z,2.91
2023-01-31T11:00:57.302Z,3.00
2023-01-31T11:01:57.368Z,3.00
2023-01-31T11:02:57.331Z,2.94
2023-01-31T11:03:57.249Z,2.93
2023-01-31T11:04:57.239Z,2.82
2023-01-31T11:05:57.261Z,2.87
2023-01-31T11:06:57.208Z,2.87
2023-01-31T11:07:57.254Z,2.82
2023-01-31T11:08:57.207Z,2.87
2023-01-31T11:09:57.181Z,2.82
2023-01-31T11:10:57.185Z,2.81
2023-01-31T11:11:57.149Z,2.82
2023-01-31T11:12:57.179Z,2.90
2023-01-31T11:13:57.121Z,2.87
2023-01-31T11:14:57.102Z,2.81
2023-01-31T11:15:57.079Z,2.87
2023-01-31T11:16:57.198Z,2.89
2023-01-31T11:17:57.093Z,2.86
2023-01-31T11:18:57.053Z,2.84
2023-01-31T11:19:57.047Z,2.82
2023-01-31T11:20:57.035Z,2.79
2023-01-31T11:21:57.036Z,2.78
2023-01-31T11:22:57.061Z,2.78
2023-01-31T11:23:57.000Z,2.84
2023-01-31T11:24:56.993Z,2.79
2023-01-31T11:25:56.961Z,2.87
2023-01-31T11:26:56.998Z,2.90
2023-01-31T11:27:56.968Z,2.84
2023-01-31T11:28:56.940Z,2.82
2023-01-31T11:29:59.508Z,2.79
2023-01-31T11:30:57.008Z,2.81
2023-01-31T11:31:56.913Z,2.84
2023-01-31T11:32:56.887Z,2.89
2023-01-31T11:33:56.895Z,2.84
2023-01-31T11:34:56.880Z,2.86
2023-01-31T11:35:56.847Z,2.84
2023-01-31T11:36:56.855Z,2.89
2023-01-31T11:37:56.810Z,2.96
2023-01-31T11:38:56.823Z,2.90
2023-01-31T11:39:56.822Z,2.87
2023-01-31T11:40:56.770Z,2.82
2023-01-31T11:41:56.771Z,2.87
2023-01-31T11:42:56.822Z,2.86
2023-01-31T11:43:56.732Z,2.82
2023-01-31T11:44:56.725Z,2.89
2023-01-31T11:45:56.731Z,2.84
2023-01-31T11:46:56.740Z,2.86
2023-01-31T11:47:56.686Z,2.84
2023-01-31T11:48:56.702Z,2.82
2023-01-31T11:49:56.724Z,2.84
2023-01-31T11:50:56.662Z,2.87
2023-01-31T11:51:56.687Z,2.90
2023-01-31T11:52:56.618Z,2.91
2023-01-31T11:53:56.612Z,2.91
2023-01-31T11:54:56.609Z,2.93
2023-01-31T11:55:56.612Z,2.99
2023-01-31T11:56:56.621Z,2.94
2023-01-31T11:57:56.638Z,2.96
2023-01-31T11:58:56.547Z,2.94
2023-01-31T11:59:56.529Z,2.99
2023-01-31T12:00:56.572Z,2.97
2023-01-31T12:01:56.537Z,3.02
2023-01-31T12:02:56.504Z,3.09
2023-01-31T12:04:02.959Z,3.11
2023-01-31T12:04:56.481Z,3.08
2023-01-31T12:05:56.453Z,3.04
2023-01-31T12:06:56.442Z,2.94
2023-01-31T12:07:56.418Z,3.02
2023-01-31T12:08:56.527Z,3.00
2023-01-31T12:09:56.458Z,3.04
2023-01-31T12:10:56.448Z,2.99
2023-01-31T12:11:56.381Z,3.05
2023-01-31T12:13:16.762Z,3.02
2023-01-31T12:13:56.366Z,3.04
2023-01-31T12:14:56.327Z,3.09
2023-01-31T12:15:56.366Z,3.09
2023-01-31T12:16:56.378Z,3.12
2023-01-31T12:17:56.292Z,3.14
2023-01-31T12:18:56.309Z,3.15
2023-01-31T12:19:56.269Z,3.15
2023-01-31T12:20:56.297Z,3.17
2023-01-31T12:21:56.302Z,3.09
2023-01-31T12:22:56.230Z,3.12
2023-01-31T12:23:56.244Z,3.14
2023-01-31T12:24:56.245Z,3.22
2023-01-31T12:25:56.209Z,3.37
2023-01-31T12:29:29.895Z,3.49
2023-01-31T12:30:30.909Z,3.41
2023-01-31T12:31:30.962Z,3.32
2023-01-31T12:32:30.853Z,3.36
2023-01-31T12:33:30.829Z,3.36
2023-01-31T12:34:30.845Z,3.33
2023-01-31T12:35:30.822Z,3.32
2023-01-31T12:36:30.818Z,3.29
2023-01-31T12:37:30.776Z,3.27
2023-01-31T12:38:30.776Z,3.30
2023-01-31T12:39:30.773Z,3.29
2023-01-31T12:40:31.056Z,3.30
2023-01-31T12:41:30.748Z,3.33
2023-01-31T12:42:30.728Z,3.33
2023-01-31T12:43:30.706Z,3.36
2023-01-31T12:44:30.694Z,3.41
2023-01-31T12:45:30.687Z,3.41
2023-01-31T12:46:30.779Z,3.41
2023-01-31T12:47:30.657Z,3.32
2023-01-31T12:48:30.656Z,3.32
2023-01-31T12:49:30.623Z,3.33
2023-01-31T12:50:30.617Z,3.35
2023-01-31T12:51:30.619Z,3.41
2023-01-31T12:52:30.598Z,3.44
2023-01-31T12:53:30.587Z,3.49
2023-01-31T12:54:30.584Z,3.46
2023-01-31T12:55:30.553Z,3.44
2023-01-31T12:56:30.541Z,3.48
2023-01-31T12:57:30.527Z,3.45
2023-01-31T12:58:30.528Z,3.41
2023-01-31T12:59:30.532Z,3.48
2023-01-31T13:00:30.534Z,3.49
2023-01-31T13:01:30.583Z,3.37
2023-01-31T13:02:30.510Z,3.42
2023-01-31T13:03:30.445Z,3.37
2023-01-31T13:04:30.499Z,3.36
2023-01-31T13:05:30.421Z,3.42
2023-01-31T13:06:30.413Z,3.42
2023-01-31T13:07:30.397Z,3.33
2023-01-31T13:08:30.396Z,3.29
2023-01-31T13:09:30.402Z,3.29
2023-01-31T13:10:30.367Z,3.30
2023-01-31T13:11:30.392Z,3.32
2023-01-31T13:12:30.359Z,3.37
2023-01-31T13:13:30.323Z,3.36
2023-01-31T13:14:30.311Z,3.35
2023-01-31T13:15:30.300Z,3.37
2023-01-31T13:16:30.298Z,3.36
2023-01-31T13:17:30.290Z,3.37
2023-01-31T13:18:30.260Z,3.33
2023-01-31T13:19:30.243Z,3.37
2023-01-31T13:20:30.234Z,3.37